Time;durP1;ratioP1;P1;durP2;ratioP2;P2;SDS_P1;SDS_P2;PMS_P1;PMS_P2;Temp;Humidity;BMP_temperature;BMP_pressure;BME280_temperature;BME280_humidity;BME280_pressure;Samples;Min_cycle;Max_cycle;Signal;HPM_P1;HPM_P2
2022/08/09 00:02:25;;;;;;;7.97;3.20;;;25.20;58.80;;;;;;7688270;22;80745;-70
2022/08/09 00:05:25;;;;;;;7.00;3.17;;;25.20;58.80;;;;;;7688292;22;80114;-69
2022/08/09 00:08:26;;;;;;;9.80;3.17;;;25.20;58.70;;;;;;7687641;22;80788;-69
2022/08/09 00:11:28;;;;;;;5.45;2.85;;;25.20;58.60;;;;;;7688333;22;80370;-69
2022/08/09 00:14:28;;;;;;;4.47;3.13;;;25.10;58.50;;;;;;7687813;22;85087;-69
2022/08/09 00:17:29;;;;;;;16.85;3.83;;;25.20;58.50;;;;;;7688586;22;80012;-69
2022/08/09 00:20:29;;;;;;;6.97;3.00;;;25.10;58.50;;;;;;7688355;22;80500;-70
2022/08/09 00:23:30;;;;;;;8.43;3.85;;;25.20;59.30;;;;;;7688403;22;81430;-70
2022/08/09 00:26:30;;;;;;;7.05;3.05;;;25.10;58.80;;;;;;7687861;22;81272;-68
2022/08/09 00:29:31;;;;;;;10.75;3.20;;;25.10;58.80;;;;;;7686686;22;83043;-69
2022/08/09 00:32:31;;;;;;;8.45;3.53;;;25.10;58.70;;;;;;7688043;22;80398;-68
2022/08/09 00:35:32;;;;;;;3.90;2.63;;;25.10;58.80;;;;;;7688295;22;80498;-69
2022/08/09 00:38:32;;;;;;;6.63;3.10;;;25.10;58.80;;;;;;7688465;22;81380;-69
2022/08/09 00:41:33;;;;;;;8.00;3.65;;;25.10;58.80;;;;;;7688735;22;80418;-69
2022/08/09 00:44:33;;;;;;;7.13;3.22;;;25.10;58.90;;;;;;7686437;22;82056;-69
2022/08/09 00:47:34;;;;;;;6.30;3.53;;;25.10;58.90;;;;;;7688162;22;81460;-69
2022/08/09 00:50:34;;;;;;;7.93;3.40;;;25.10;58.90;;;;;;7688543;22;80275;-69
2022/08/09 00:53:35;;;;;;;5.82;3.53;;;25.10;58.90;;;;;;7688574;22;81372;-69
2022/08/09 00:56:35;;;;;;;6.63;3.13;;;25.10;59.10;;;;;;7688419;22;80971;-70
2022/08/09 00:59:36;;;;;;;5.20;3.70;;;25.10;59.00;;;;;;7688943;22;80219;-71
2022/08/09 01:02:36;;;;;;;4.88;3.10;;;25.10;59.00;;;;;;7686956;22;83237;-71
2022/08/09 01:05:37;;;;;;;7.00;3.63;;;25.10;59.00;;;;;;7688505;22;80187;-71
2022/08/09 01:08:39;;;;;;;3.50;2.55;;;25.10;59.00;;;;;;7688962;22;80731;-70
2022/08/09 01:11:40;;;;;;;8.80;3.80;;;25.10;58.90;;;;;;7687546;22;79968;-70
2022/08/09 01:14:41;;;;;;;8.00;3.63;;;25.10;59.00;;;;;;7688356;22;80372;-71
2022/08/09 01:17:41;;;;;;;5.40;3.25;;;25.10;59.10;;;;;;7688601;22;80126;-69
2022/08/09 01:20:42;;;;;;;5.43;2.85;;;25.10;59.20;;;;;;7686845;22;82564;-70
2022/08/09 01:23:42;;;;;;;10.65;3.30;;;25.10;59.70;;;;;;7688303;22;80177;-71
2022/08/09 01:26:42;;;;;;;6.65;3.70;;;25.10;59.10;;;;;;7688520;22;80744;-71
2022/08/09 01:29:43;;;;;;;4.43;3.05;;;25.10;59.10;;;;;;7687800;22;81894;-70
2022/08/09 01:32:44;;;;;;;8.45;3.40;;;25.10;59.20;;;;;;7688532;22;80432;-71
2022/08/09 01:35:44;;;;;;;4.90;3.00;;;25.10;59.10;;;;;;7688419;22;80452;-70
2022/08/09 01:38:45;;;;;;;10.30;3.72;;;25.10;59.00;;;;;;7688172;22;80132;-70
2022/08/09 01:41:45;;;;;;;9.63;2.90;;;25.10;59.00;;;;;;7686662;22;81768;-70
2022/08/09 01:44:47;;;;;;;7.63;3.20;;;25.10;59.00;;;;;;7688243;22;80183;-69
2022/08/09 01:47:47;;;;;;;4.90;3.10;;;25.10;58.90;;;;;;7688873;22;80378;-69
2022/08/09 01:50:48;;;;;;;5.80;3.50;;;25.10;58.70;;;;;;7687840;22;79783;-70
2022/08/09 01:53:48;;;;;;;6.20;3.00;;;25.10;58.50;;;;;;7688121;22;80854;-70
2022/08/09 01:56:49;;;;;;;8.52;3.15;;;25.00;58.30;;;;;;7686509;22;81677;-71
2022/08/09 01:59:50;;;;;;;5.28;2.80;;;25.10;58.30;;;;;;7686322;22;81830;-71
2022/08/09 02:02:50;;;;;;;6.18;3.55;;;25.00;58.10;;;;;;7687901;22;80208;-71
2022/08/09 02:05:51;;;;;;;10.90;4.43;;;25.00;58.20;;;;;;7687596;22;80205;-70
2022/08/09 02:08:51;;;;;;;5.43;3.55;;;25.00;58.20;;;;;;7687906;22;80287;-70
2022/08/09 02:11:52;;;;;;;10.07;3.97;;;25.00;58.10;;;;;;7687803;22;80724;-69
2022/08/09 02:14:52;;;;;;;11.32;3.05;;;25.00;58.00;;;;;;7688176;22;80378;-69
2022/08/09 02:17:52;;;;;;;4.00;2.50;;;25.10;58.20;;;;;;7688170;22;80574;-70
2022/08/09 02:20:53;;;;;;;9.82;3.00;;;25.00;58.10;;;;;;7685916;22;81822;-71
2022/08/09 02:23:53;;;;;;;6.15;3.08;;;25.10;58.20;;;;;;7687747;22;80141;-71
2022/08/09 02:26:54;;;;;;;4.18;2.75;;;25.00;58.20;;;;;;7687542;22;80303;-70
2022/08/09 02:29:54;;;;;;;4.95;3.10;;;25.00;58.30;;;;;;7686243;22;81809;-70
2022/08/09 02:32:55;;;;;;;6.22;3.15;;;25.00;58.30;;;;;;7688018;22;80028;-70
2022/08/09 02:35:56;;;;;;;7.30;2.88;;;25.00;58.40;;;;;;7689275;22;80854;-70
2022/08/09 02:38:56;;;;;;;5.18;2.90;;;25.00;58.40;;;;;;7688810;22;80312;-71
2022/08/09 02:41:57;;;;;;;6.47;3.05;;;25.00;58.30;;;;;;7687510;22;81580;-70
2022/08/09 02:44:57;;;;;;;6.40;3.35;;;25.00;58.30;;;;;;7689127;22;80140;-70
2022/08/09 02:47:58;;;;;;;6.30;3.28;;;25.00;58.30;;;;;;7689017;22;80015;-69
2022/08/09 02:50:58;;;;;;;4.57;2.88;;;25.00;58.30;;;;;;7688644;22;80905;-69
2022/08/09 02:53:59;;;;;;;5.30;2.63;;;25.00;58.20;;;;;;7688559;22;80278;-69
2022/08/09 02:57:01;;;;;;;7.18;3.20;;;25.00;58.30;;;;;;7688531;22;81334;-70
2022/08/09 03:00:01;;;;;;;8.10;3.40;;;25.00;58.30;;;;;;7688876;22;81123;-71
2022/08/09 03:03:02;;;;;;;7.75;3.15;;;25.00;58.40;;;;;;7686806;22;80362;-72
2022/08/09 03:06:02;;;;;;;7.78;3.60;;;25.00;58.40;;;;;;7689389;22;80988;-69
2022/08/09 03:09:02;;;;;;;7.65;3.70;;;24.90;58.40;;;;;;7688913;22;81742;-70
2022/08/09 03:12:03;;;;;;;6.20;2.63;;;25.00;58.50;;;;;;7687902;22;80949;-69
2022/08/09 03:15:04;;;;;;;9.00;3.75;;;25.00;58.50;;;;;;7687402;22;80256;-69
2022/08/09 03:18:04;;;;;;;7.40;3.03;;;25.00;59.20;;;;;;7688602;22;80476;-69
2022/08/09 03:21:04;;;;;;;7.13;3.20;;;25.00;58.70;;;;;;7688993;22;80768;-70
2022/08/09 03:24:05;;;;;;;9.20;3.15;;;25.00;58.70;;;;;;7688150;22;81470;-70
2022/08/09 03:27:05;;;;;;;7.85;3.00;;;25.00;58.60;;;;;;7688458;22;80093;-70
2022/08/09 03:30:06;;;;;;;5.72;3.15;;;24.90;58.50;;;;;;7688458;22;80740;-70
2022/08/09 03:33:06;;;;;;;6.50;3.30;;;25.00;58.80;;;;;;7688488;22;81333;-69
2022/08/09 03:36:07;;;;;;;11.02;3.40;;;24.90;58.70;;;;;;7688434;22;80247;-69
2022/08/09 03:39:08;;;;;;;4.90;3.55;;;24.90;58.90;;;;;;7687116;22;83313;-69
2022/08/09 03:42:08;;;;;;;5.05;2.83;;;25.00;59.00;;;;;;7696116;22;80271;-69
2022/08/09 03:45:09;;;;;;;6.10;3.28;;;25.00;58.80;;;;;;7700328;22;82152;-69
2022/08/09 03:48:09;;;;;;;6.28;3.70;;;24.90;58.80;;;;;;7693990;22;80230;-72
2022/08/09 03:51:10;;;;;;;5.43;3.45;;;25.00;58.90;;;;;;7689096;22;80549;-70
2022/08/09 03:54:10;;;;;;;7.18;3.33;;;24.90;58.80;;;;;;7689374;22;80149;-69
2022/08/09 03:57:11;;;;;;;6.40;3.13;;;25.00;58.60;;;;;;7688637;22;80134;-70
2022/08/09 04:00:11;;;;;;;10.55;4.15;;;24.90;58.50;;;;;;7689004;22;81466;-70
2022/08/09 04:03:15;;;;;;;6.78;3.53;;;24.90;57.90;;;;;;7688679;22;80357;-70
2022/08/09 04:06:15;;;;;;;6.93;2.75;;;24.90;57.50;;;;;;7688591;22;80297;-69
2022/08/09 04:09:16;;;;;;;4.78;2.72;;;24.90;57.10;;;;;;7687901;22;80215;-70
2022/08/09 04:12:16;;;;;;;11.27;3.03;;;24.90;56.90;;;;;;7687768;22;80523;-70
2022/08/09 04:15:17;;;;;;;6.05;2.58;;;24.90;56.60;;;;;;7688674;22;80335;-69
2022/08/09 04:18:18;;;;;;;4.70;2.60;;;24.80;56.50;;;;;;7688470;22;80984;-70
2022/08/09 04:21:19;;;;;;;4.78;3.05;;;24.90;56.50;;;;;;7688316;22;80252;-71
2022/08/09 04:24:20;;;;;;;9.63;2.58;;;24.80;56.30;;;;;;7688916;22;80289;-66
2022/08/09 04:27:20;;;;;;;6.78;2.40;;;24.80;56.50;;;;;;7687628;22;80480;-67
2022/08/09 04:30:21;;;;;;;7.45;2.85;;;24.90;57.00;;;;;;7687951;22;80158;-67
2022/08/09 04:33:22;;;;;;;4.45;2.67;;;24.90;57.00;;;;;;7688584;22;80293;-67
2022/08/09 04:36:23;;;;;;;5.47;2.78;;;24.90;57.00;;;;;;7688651;22;80612;-70
2022/08/09 04:39:24;;;;;;;10.15;3.25;;;24.90;57.00;;;;;;7688354;22;81792;-69
2022/08/09 04:42:28;;;;;;;4.78;2.67;;;24.90;56.80;;;;;;7688184;22;80720;-71
2022/08/09 04:45:28;;;;;;;5.03;2.85;;;25.00;56.90;;;;;;7687707;22;80276;-68
2022/08/09 04:48:29;;;;;;;9.30;2.72;;;24.90;56.80;;;;;;7688466;22;80444;-67
2022/08/09 04:51:29;;;;;;;6.97;3.10;;;25.00;57.10;;;;;;7685852;22;80102;-67
2022/08/09 04:54:30;;;;;;;7.43;2.40;;;25.00;57.20;;;;;;7685588;22;80315;-68
2022/08/09 04:57:30;;;;;;;12.93;2.70;;;25.00;57.40;;;;;;7684778;22;80390;-68
2022/08/09 05:00:33;;;;;;;7.28;2.42;;;25.10;57.30;;;;;;7683892;22;82783;-73
2022/08/09 05:03:34;;;;;;;6.78;2.67;;;25.10;57.30;;;;;;7685713;22;80277;-81
2022/08/09 05:06:34;;;;;;;6.78;2.85;;;25.10;57.20;;;;;;7687551;22;80368;-71
2022/08/09 05:09:35;;;;;;;2.72;2.22;;;25.10;57.40;;;;;;7688650;22;80317;-67
2022/08/09 05:12:35;;;;;;;16.33;3.15;;;25.10;57.30;;;;;;7685885;22;81358;-66
2022/08/09 05:15:36;;;;;;;7.75;2.92;;;25.20;57.40;;;;;;7687449;22;80800;-67
2022/08/09 05:18:37;;;;;;;35.10;13.75;;;25.10;57.50;;;;;;7688236;22;80241;-68
2022/08/09 05:21:37;;;;;;;121.45;55.00;;;25.20;57.70;;;;;;7684057;22;82981;-69
2022/08/09 05:24:38;;;;;;;146.07;67.20;;;25.20;57.80;;;;;;7684021;22;83335;-75
2022/08/09 05:27:38;;;;;;;130.32;58.90;;;25.20;57.80;;;;;;7683719;22;83186;-66
2022/08/09 05:30:39;;;;;;;113.90;53.72;;;25.20;57.60;;;;;;7683601;22;82849;-65
2022/08/09 05:33:39;;;;;;;78.63;35.95;;;25.20;57.60;;;;;;7683680;22;83220;-68
2022/08/09 05:36:40;;;;;;;73.78;32.78;;;25.20;57.10;;;;;;7683789;22;82975;-67
2022/08/09 05:39:41;;;;;;;65.57;28.70;;;25.30;57.20;;;;;;7683400;22;83004;-67
2022/08/09 05:42:41;;;;;;;60.78;27.05;;;25.30;57.10;;;;;;7683187;22;83130;-67
2022/08/09 05:45:42;;;;;;;59.85;26.67;;;25.30;56.90;;;;;;7683758;22;82646;-69
2022/08/09 05:48:42;;;;;;;51.03;17.88;;;25.30;57.10;;;;;;7683448;22;84215;-68
2022/08/09 05:51:43;;;;;;;36.80;15.70;;;25.30;56.60;;;;;;7671735;22;84018;-69
2022/08/09 05:54:43;;;;;;;27.52;11.95;;;25.30;56.40;;;;;;7678270;22;83528;-69
2022/08/09 05:57:44;;;;;;;25.55;11.05;;;25.30;56.20;;;;;;7678439;22;83086;-71
2022/08/09 06:00:44;;;;;;;24.08;10.38;;;25.30;55.80;;;;;;7678103;22;83069;-70
2022/08/09 06:03:45;;;;;;;25.98;9.63;;;25.30;55.50;;;;;;7679083;22;84031;-68
2022/08/09 06:06:45;;;;;;;19.30;8.95;;;25.20;55.60;;;;;;7683246;22;83888;-68
2022/08/09 06:09:46;;;;;;;21.27;9.18;;;25.20;55.90;;;;;;7684939;22;80519;-68
2022/08/09 06:12:46;;;;;;;18.40;7.97;;;25.20;56.00;;;;;;7683789;22;80779;-69
2022/08/09 06:15:47;;;;;;;14.80;7.00;;;25.30;56.00;;;;;;7681530;22;81146;-68
2022/08/09 06:18:47;;;;;;;17.40;6.50;;;25.30;56.70;;;;;;7686748;22;81045;-67
2022/08/09 06:21:47;;;;;;;19.25;6.55;;;25.30;56.20;;;;;;7687217;22;80472;-68
2022/08/09 06:24:48;;;;;;;17.05;6.32;;;25.30;56.10;;;;;;7687038;22;80440;-72
2022/08/09 06:27:48;;;;;;;21.40;5.88;;;25.30;56.10;;;;;;7688598;22;80399;-69
2022/08/09 06:30:49;;;;;;;14.00;6.05;;;25.30;56.10;;;;;;7688193;22;80013;-68
2022/08/09 06:33:49;;;;;;;39.53;6.80;;;25.30;56.10;;;;;;7687651;22;80881;-69
2022/08/09 06:36:50;;;;;;;9.00;5.38;;;25.30;56.10;;;;;;7688651;22;80328;-71
2022/08/09 06:39:50;;;;;;;14.05;5.65;;;25.40;56.40;;;;;;7687323;22;80155;-71
2022/08/09 06:42:51;;;;;;;20.52;5.47;;;25.40;56.50;;;;;;7687863;22;81492;-75
2022/08/09 06:45:51;;;;;;;10.68;5.03;;;25.40;56.30;;;;;;7688665;22;86333;-73
2022/08/09 06:48:52;;;;;;;10.38;4.30;;;25.40;56.20;;;;;;7688640;22;81817;-71
2022/08/09 06:51:53;;;;;;;11.98;4.68;;;25.40;56.10;;;;;;7684885;22;81222;-75
2022/08/09 06:54:53;;;;;;;8.70;4.63;;;25.40;56.10;;;;;;7687427;22;81279;-66
2022/08/09 06:57:54;;;;;;;10.57;4.03;;;25.40;56.20;;;;;;7687187;22;81453;-69
2022/08/09 07:00:54;;;;;;;7.55;2.95;;;25.40;55.90;;;;;;7686999;22;80955;-66
2022/08/09 07:03:55;;;;;;;8.73;3.08;;;25.40;55.30;;;;;;7687079;22;80492;-70
2022/08/09 07:06:55;;;;;;;8.48;2.92;;;25.30;54.80;;;;;;7687395;22;80244;-67
2022/08/09 07:09:56;;;;;;;6.03;2.40;;;25.30;54.50;;;;;;7687882;22;80659;-74
2022/08/09 07:12:56;;;;;;;5.07;2.72;;;25.20;54.40;;;;;;7687685;22;81672;-69
2022/08/09 07:15:57;;;;;;;4.82;2.38;;;25.30;54.60;;;;;;7688609;22;80315;-74
2022/08/09 07:18:57;;;;;;;4.03;2.28;;;25.20;54.60;;;;;;7688980;22;80654;-69
2022/08/09 07:21:58;;;;;;;5.68;1.92;;;25.30;54.20;;;;;;7687832;22;80159;-67
2022/08/09 07:24:59;;;;;;;9.85;2.45;;;25.20;53.70;;;;;;7685664;22;80389;-68
2022/08/09 07:27:59;;;;;;;3.72;1.98;;;25.20;53.10;;;;;;7684545;22;80601;-70
2022/08/09 07:31:00;;;;;;;8.63;1.80;;;25.10;53.40;;;;;;7687223;22;80753;-72
2022/08/09 07:34:00;;;;;;;2.88;1.83;;;25.10;53.20;;;;;;7686906;22;80742;-70
2022/08/09 07:37:01;;;;;;;5.63;2.15;;;25.10;53.40;;;;;;7685494;22;81161;-69
2022/08/09 07:40:01;;;;;;;6.47;2.17;;;25.10;52.90;;;;;;7687800;22;80292;-68
2022/08/09 07:43:02;;;;;;;4.75;1.80;;;25.10;52.60;;;;;;7687722;22;81273;-68
2022/08/09 07:46:02;;;;;;;8.07;2.30;;;25.00;52.60;;;;;;7685368;22;80516;-68
2022/08/09 07:49:03;;;;;;;3.10;1.58;;;25.00;52.50;;;;;;7686648;22;80226;-69
2022/08/09 07:52:04;;;;;;;4.68;1.85;;;24.90;52.40;;;;;;7682248;22;80239;-69
2022/08/09 07:55:04;;;;;;;5.80;1.38;;;24.90;52.00;;;;;;7686253;22;80316;-68
2022/08/09 07:58:05;;;;;;;3.88;1.38;;;24.90;51.50;;;;;;7685424;22;80349;-69
2022/08/09 08:01:05;;;;;;;3.95;1.60;;;24.80;51.50;;;;;;7687282;22;80367;-69
2022/08/09 08:04:06;;;;;;;4.63;1.58;;;24.80;51.40;;;;;;7686734;22;80216;-69
2022/08/09 08:07:06;;;;;;;2.45;1.45;;;24.80;51.00;;;;;;7688038;22;80110;-68
2022/08/09 08:10:07;;;;;;;3.28;1.33;;;24.80;51.00;;;;;;7687352;22;80906;-68
2022/08/09 08:13:07;;;;;;;4.07;1.63;;;24.70;50.50;;;;;;7687115;22;80611;-69
2022/08/09 08:16:08;;;;;;;3.08;1.52;;;24.70;50.60;;;;;;7687482;22;80561;-68
2022/08/09 08:19:09;;;;;;;4.32;1.55;;;24.70;50.40;;;;;;7687719;22;80331;-69
2022/08/09 08:22:09;;;;;;;1.85;1.30;;;24.70;50.60;;;;;;7686383;22;81610;-69
2022/08/09 08:25:10;;;;;;;3.65;1.55;;;24.80;51.10;;;;;;7687244;22;80660;-69
2022/08/09 08:28:10;;;;;;;5.70;2.00;;;24.80;50.30;;;;;;7687380;22;80562;-70
2022/08/09 08:31:11;;;;;;;3.80;1.95;;;24.80;49.70;;;;;;7686555;22;80253;-68
2022/08/09 08:34:11;;;;;;;2.97;1.60;;;24.80;49.90;;;;;;7686803;22;80559;-68
2022/08/09 08:37:12;;;;;;;3.17;1.42;;;24.80;50.10;;;;;;7686539;22;80419;-71
2022/08/09 08:40:12;;;;;;;2.75;1.42;;;24.80;49.80;;;;;;7687765;22;81702;-71
2022/08/09 08:43:13;;;;;;;3.08;1.52;;;24.80;50.00;;;;;;7687979;22;80291;-69
2022/08/09 08:46:13;;;;;;;1.67;1.20;;;24.70;49.20;;;;;;7687062;22;80250;-70
2022/08/09 08:49:14;;;;;;;4.75;1.45;;;24.70;48.90;;;;;;7686580;22;80692;-70
2022/08/09 08:52:14;;;;;;;4.00;1.50;;;24.80;48.50;;;;;;7686998;22;80445;-69
2022/08/09 08:55:15;;;;;;;10.80;1.73;;;24.70;48.40;;;;;;7686933;22;80240;-68
2022/08/09 08:58:15;;;;;;;1.63;1.10;;;24.70;48.60;;;;;;7686298;22;80848;-71
2022/08/09 09:01:16;;;;;;;1.42;1.23;;;24.70;49.00;;;;;;7687724;22;80315;-70
2022/08/09 09:04:17;;;;;;;4.40;1.35;;;24.80;49.30;;;;;;7687412;22;80535;-77
2022/08/09 09:07:17;;;;;;;4.88;1.80;;;24.80;49.40;;;;;;7687314;22;80477;-72
2022/08/09 09:10:18;;;;;;;4.45;1.63;;;24.90;50.20;;;;;;7685879;22;80311;-68
2022/08/09 09:13:18;;;;;;;2.95;1.45;;;25.00;49.60;;;;;;7686416;22;81492;-68
2022/08/09 09:16:19;;;;;;;2.00;1.80;;;25.00;50.10;;;;;;7684885;22;81446;-65
2022/08/09 09:19:19;;;;;;;7.53;1.63;;;25.10;49.60;;;;;;7684791;22;81336;-68
2022/08/09 09:22:20;;;;;;;3.90;1.92;;;25.10;50.90;;;;;;7684419;22;80353;-68
2022/08/09 09:25:20;;;;;;;5.07;2.03;;;25.20;50.20;;;;;;7686542;22;80071;-68
2022/08/09 09:28:21;;;;;;;4.65;1.98;;;25.30;50.70;;;;;;7687440;22;80274;-68
2022/08/09 09:31:23;;;;;;;2.47;1.58;;;25.30;50.80;;;;;;7687486;22;80661;-69
2022/08/09 09:34:23;;;;;;;4.72;1.77;;;25.40;50.90;;;;;;7687560;22;81495;-68
2022/08/09 09:37:24;;;;;;;4.07;1.67;;;25.40;50.30;;;;;;7687658;22;80325;-68
2022/08/09 09:40:24;;;;;;;5.15;1.63;;;25.40;51.50;;;;;;7687855;22;81533;-67
2022/08/09 09:43:25;;;;;;;2.47;1.55;;;25.40;51.30;;;;;;7687581;22;80129;-67
2022/08/09 09:46:25;;;;;;;3.28;1.65;;;25.50;51.30;;;;;;7687118;22;80058;-69
2022/08/09 09:49:26;;;;;;;2.97;1.60;;;25.50;51.30;;;;;;7687632;22;81527;-67
2022/08/09 09:52:26;;;;;;;4.25;1.50;;;25.50;51.00;;;;;;7687749;22;80602;-65
2022/08/09 09:55:27;;;;;;;5.65;1.75;;;25.60;50.90;;;;;;7687482;22;80227;-65
2022/08/09 09:58:27;;;;;;;2.65;1.60;;;25.60;51.10;;;;;;7687723;22;80682;-65
2022/08/09 10:01:28;;;;;;;2.53;1.60;;;25.70;51.50;;;;;;7685796;22;81533;-68
2022/08/09 10:04:28;;;;;;;3.35;1.42;;;25.70;51.30;;;;;;7686001;22;80306;-68
2022/08/09 10:07:29;;;;;;;6.57;1.55;;;25.70;51.00;;;;;;7686685;22;82114;-69
2022/08/09 10:10:29;;;;;;;4.68;1.55;;;25.80;51.50;;;;;;7687019;22;81040;-67
2022/08/09 10:13:30;;;;;;;3.78;1.70;;;25.70;50.10;;;;;;7687296;22;80189;-68
2022/08/09 10:16:30;;;;;;;7.78;2.10;;;25.70;50.00;;;;;;7685348;22;81383;-68
2022/08/09 10:19:31;;;;;;;2.65;1.60;;;25.90;50.60;;;;;;7687368;22;80016;-66
2022/08/09 10:22:31;;;;;;;2.83;1.90;;;25.90;50.70;;;;;;7687237;22;82039;-67
2022/08/09 10:25:33;;;;;;;6.28;1.67;;;25.80;50.10;;;;;;7687128;22;80276;-67
2022/08/09 10:28:34;;;;;;;2.90;1.60;;;25.70;49.40;;;;;;7686864;22;80798;-66
2022/08/09 10:31:34;;;;;;;3.72;1.98;;;25.60;49.20;;;;;;7687254;22;80482;-66
2022/08/09 10:34:35;;;;;;;10.20;2.13;;;25.60;49.60;;;;;;7687243;22;80135;-66
2022/08/09 10:37:35;;;;;;;40.60;15.73;;;25.50;49.90;;;;;;7686161;22;81359;-67
2022/08/09 10:40:36;;;;;;;26.83;12.45;;;25.60;50.10;;;;;;7680949;22;83385;-67
2022/08/09 10:43:36;;;;;;;19.70;7.38;;;25.50;49.10;;;;;;7681799;22;83257;-66
2022/08/09 10:46:37;;;;;;;24.95;9.18;;;25.50;49.70;;;;;;7686520;22;83856;-71
2022/08/09 10:49:37;;;;;;;27.40;10.70;;;25.50;49.90;;;;;;7686251;22;81629;-77
2022/08/09 10:52:38;;;;;;;19.40;7.97;;;25.50;50.20;;;;;;7682595;22;82663;-72
2022/08/09 10:55:38;;;;;;;10.55;4.40;;;25.60;50.40;;;;;;7689157;22;82122;-68
2022/08/09 10:58:39;;;;;;;5.10;2.17;;;25.60;50.30;;;;;;7688667;22;80273;-70
2022/08/09 11:01:40;;;;;;;7.00;2.67;;;25.50;49.30;;;;;;7689350;22;81185;-70
2022/08/09 11:04:41;;;;;;;1.90;1.70;;;25.50;48.60;;;;;;7689013;22;80457;-68
2022/08/09 11:07:42;;;;;;;7.38;1.70;;;25.50;48.50;;;;;;7688572;22;80796;-68
2022/08/09 11:10:42;;;;;;;3.60;1.80;;;25.50;48.90;;;;;;7688175;22;86052;-69
2022/08/09 11:13:43;;;;;;;11.25;2.28;;;25.50;48.80;;;;;;7688821;22;80447;-70
2022/08/09 11:16:43;;;;;;;5.88;1.88;;;25.50;49.10;;;;;;7688925;22;80240;-70
2022/08/09 11:19:44;;;;;;;8.35;1.90;;;25.50;49.90;;;;;;7688264;22;81450;-70
2022/08/09 11:22:45;;;;;;;3.58;1.65;;;25.50;50.10;;;;;;7687165;22;81276;-69
2022/08/09 11:25:46;;;;;;;4.65;1.70;;;25.50;50.10;;;;;;7687285;22;81497;-69
2022/08/09 11:28:46;;;;;;;4.60;1.85;;;25.50;50.10;;;;;;7687924;22;82211;-69
2022/08/09 11:31:48;;;;;;;2.63;1.52;;;25.50;49.90;;;;;;7687899;22;80358;-69
2022/08/09 11:34:51;;;;;;;3.55;1.70;;;25.40;49.60;;;;;;7687742;22;82033;-69
2022/08/09 11:37:51;;;;;;;2.28;1.77;;;25.40;49.50;;;;;;7688144;22;81798;-69
2022/08/09 11:40:52;;;;;;;3.05;1.88;;;25.40;49.50;;;;;;7688696;22;80531;-68
2022/08/09 11:43:52;;;;;;;10.25;1.70;;;25.40;49.30;;;;;;7688630;22;80828;-69
2022/08/09 11:46:53;;;;;;;10.80;1.38;;;25.40;49.30;;;;;;7687818;22;80509;-69
2022/08/09 11:49:53;;;;;;;2.42;1.50;;;25.50;49.10;;;;;;7686619;22;83275;-69
2022/08/09 11:52:54;;;;;;;4.68;1.90;;;25.40;48.60;;;;;;7687005;22;80343;-68
2022/08/09 11:55:54;;;;;;;2.25;1.63;;;25.40;48.70;;;;;;7688698;22;80125;-68
2022/08/09 11:58:55;;;;;;;3.42;1.58;;;25.30;48.90;;;;;;7688104;22;80401;-69
2022/08/09 12:01:55;;;;;;;3.30;1.20;;;25.30;49.00;;;;;;7685176;22;83478;-69
2022/08/09 12:04:56;;;;;;;6.32;1.80;;;25.30;49.30;;;;;;7686547;22;80231;-70
2022/08/09 12:07:56;;;;;;;12.20;1.90;;;25.30;49.90;;;;;;7686118;22;80400;-67
2022/08/09 12:10:57;;;;;;;3.08;1.13;;;25.30;49.40;;;;;;7686708;22;80851;-67
2022/08/09 12:13:57;;;;;;;4.50;1.98;;;25.30;49.50;;;;;;7687977;22;80272;-73
2022/08/09 12:16:57;;;;;;;5.32;1.83;;;25.40;49.60;;;;;;7688668;22;80710;-68
2022/08/09 12:19:59;;;;;;;5.43;1.73;;;25.50;49.80;;;;;;7685531;22;80298;-69
2022/08/09 12:23:00;;;;;;;4.28;1.75;;;25.50;49.90;;;;;;7686409;22;80655;-69
2022/08/09 12:26:02;;;;;;;4.43;1.70;;;25.50;49.60;;;;;;7686170;22;80280;-67
2022/08/09 12:29:02;;;;;;;6.00;1.75;;;25.50;49.90;;;;;;7685769;22;80131;-66
2022/08/09 12:32:02;;;;;;;4.38;1.80;;;25.60;50.10;;;;;;7687092;22;80804;-68
2022/08/09 12:35:03;;;;;;;6.63;1.80;;;25.70;50.40;;;;;;7687346;22;80167;-67
2022/08/09 12:38:03;;;;;;;2.55;1.60;;;25.80;50.40;;;;;;7687006;22;80364;-70
2022/08/09 12:41:04;;;;;;;3.40;1.65;;;25.90;49.70;;;;;;7687041;22;80264;-68
2022/08/09 12:44:04;;;;;;;2.35;1.95;;;26.00;48.60;;;;;;7687512;22;80977;-67
2022/08/09 12:47:05;;;;;;;4.45;1.80;;;26.00;49.10;;;;;;7687161;22;80328;-66
2022/08/09 12:50:18;;;;;;;4.95;1.73;;;26.00;48.40;;;;;;7686709;22;80189;-68
2022/08/09 12:53:18;;;;;;;4.88;1.45;;;25.90;47.70;;;;;;7686799;22;85104;-67
2022/08/09 12:56:19;;;;;;;4.60;1.73;;;26.00;47.80;;;;;;7686936;22;81331;-69
2022/08/09 12:59:19;;;;;;;5.32;1.90;;;26.10;48.10;;;;;;7686563;22;80422;-68
2022/08/09 13:02:20;;;;;;;6.25;1.70;;;26.10;48.50;;;;;;7685298;22;80303;-68
2022/08/09 13:05:21;;;;;;;11.57;1.75;;;26.00;48.00;;;;;;7687265;22;81471;-65
2022/08/09 13:08:22;;;;;;;1.42;1.33;;;26.00;48.30;;;;;;7684267;22;80208;-65
2022/08/09 13:11:23;;;;;;;4.90;2.05;;;26.00;47.90;;;;;;7686496;22;80135;-65
2022/08/09 13:14:23;;;;;;;1.88;1.50;;;26.10;48.10;;;;;;7687163;22;80537;-63
2022/08/09 13:17:24;;;;;;;2.22;1.58;;;26.20;48.20;;;;;;7684749;22;80329;-64
2022/08/09 13:20:24;;;;;;;2.88;1.70;;;26.10;48.00;;;;;;7686674;22;80472;-65
2022/08/09 13:23:25;;;;;;;2.78;1.48;;;26.20;48.20;;;;;;7686797;22;80151;-65
2022/08/09 13:26:25;;;;;;;2.53;1.40;;;26.20;48.00;;;;;;7686616;22;80370;-64
2022/08/09 13:29:26;;;;;;;4.25;1.60;;;26.20;47.50;;;;;;7686651;22;81430;-64
2022/08/09 13:32:26;;;;;;;11.65;1.70;;;26.10;47.60;;;;;;7686780;22;80776;-66
2022/08/09 13:35:27;;;;;;;6.25;1.48;;;26.20;48.00;;;;;;7686532;22;80253;-66
2022/08/09 13:38:27;;;;;;;3.25;2.17;;;26.20;48.20;;;;;;7686241;22;80394;-68
2022/08/09 13:41:28;;;;;;;3.92;2.42;;;26.20;48.30;;;;;;7687234;22;80406;-65
2022/08/09 13:44:28;;;;;;;3.20;1.33;;;26.30;48.50;;;;;;7685976;22;80378;-65
2022/08/09 13:47:31;;;;;;;3.65;1.67;;;26.20;48.60;;;;;;7686316;22;80238;-65
2022/08/09 13:50:32;;;;;;;3.65;2.58;;;26.20;48.10;;;;;;7685952;22;80807;-65
2022/08/09 13:53:32;;;;;;;4.35;1.15;;;26.10;46.10;;;;;;7686991;22;80849;-66
2022/08/09 13:56:33;;;;;;;4.53;1.70;;;26.10;45.50;;;;;;7686518;22;80930;-65
2022/08/09 13:59:34;;;;;;;3.42;1.42;;;26.00;45.70;;;;;;7686288;22;80529;-65
2022/08/09 14:02:34;;;;;;;1.40;1.30;;;26.00;46.00;;;;;;7686341;22;80344;-66
2022/08/09 14:05:36;;;;;;;1.70;1.33;;;26.00;46.30;;;;;;7686447;22;81551;-66
2022/08/09 14:08:36;;;;;;;2.20;1.27;;;26.00;46.20;;;;;;7685502;22;80401;-66
2022/08/09 14:11:37;;;;;;;1.65;1.38;;;26.00;46.90;;;;;;7685235;22;81371;-65
2022/08/09 14:14:37;;;;;;;3.75;1.38;;;26.10;47.20;;;;;;7686230;22;81433;-65
2022/08/09 14:17:38;;;;;;;8.25;1.60;;;26.10;47.50;;;;;;7686200;22;80584;-66
2022/08/09 14:20:39;;;;;;;6.68;1.63;;;26.10;47.60;;;;;;7685157;22;81275;-67
2022/08/09 14:23:39;;;;;;;2.15;1.30;;;26.10;46.70;;;;;;7686694;22;80478;-67
2022/08/09 14:26:40;;;;;;;5.68;1.33;;;26.00;46.30;;;;;;7686342;22;80258;-66
2022/08/09 14:29:40;;;;;;;9.32;1.60;;;25.90;45.90;;;;;;7686776;22;81227;-68
2022/08/09 14:32:41;;;;;;;3.17;1.58;;;25.90;46.30;;;;;;7685225;22;80715;-66
2022/08/09 14:35:41;;;;;;;5.22;1.52;;;25.90;46.30;;;;;;7687435;22;81350;-66
2022/08/09 14:38:42;;;;;;;4.95;1.80;;;25.90;46.20;;;;;;7685683;22;80308;-69
2022/08/09 14:41:42;;;;;;;3.50;1.73;;;25.90;45.80;;;;;;7686884;22;81303;-66
2022/08/09 14:44:44;;;;;;;8.82;2.25;;;25.80;45.50;;;;;;7687625;22;80135;-68
2022/08/09 14:47:45;;;;;;;3.63;1.88;;;25.80;45.80;;;;;;7687960;22;80401;-69
2022/08/09 14:50:45;;;;;;;3.85;1.83;;;25.70;45.90;;;;;;7687385;22;80186;-67
2022/08/09 14:53:46;;;;;;;3.35;1.42;;;25.80;46.50;;;;;;7685636;22;80408;-67
2022/08/09 14:56:46;;;;;;;7.32;1.75;;;25.80;46.80;;;;;;7688087;22;80520;-67
2022/08/09 14:59:47;;;;;;;2.72;1.60;;;25.80;46.80;;;;;;7687346;22;80357;-67
2022/08/09 15:02:47;;;;;;;3.28;1.40;;;25.80;46.50;;;;;;7686001;22;80373;-66
2022/08/09 15:05:47;;;;;;;5.60;1.50;;;25.70;45.80;;;;;;7685519;22;81822;-66
2022/08/09 15:08:48;;;;;;;9.68;1.63;;;25.70;45.90;;;;;;7685863;22;81711;-67
2022/08/09 15:11:48;;;;;;;3.03;1.40;;;25.70;45.90;;;;;;7687412;22;81328;-67
2022/08/09 15:14:49;;;;;;;2.42;1.40;;;25.70;46.10;;;;;;7684643;22;81365;-67
2022/08/09 15:17:49;;;;;;;7.03;1.67;;;25.70;46.10;;;;;;7687430;22;80274;-67
2022/08/09 15:20:50;;;;;;;3.45;1.67;;;25.70;46.10;;;;;;7686069;22;80376;-68
2022/08/09 15:23:51;;;;;;;1.98;1.33;;;25.70;46.00;;;;;;7686281;22;81268;-68
2022/08/09 15:26:51;;;;;;;4.18;1.23;;;25.70;46.00;;;;;;7687164;22;80746;-67
2022/08/09 15:29:52;;;;;;;3.38;1.55;;;25.70;46.10;;;;;;7686461;22;81451;-68
2022/08/09 15:32:52;;;;;;;2.75;1.40;;;25.70;46.20;;;;;;7687787;22;80495;-66
2022/08/09 15:35:53;;;;;;;4.68;1.73;;;25.70;46.10;;;;;;7687676;22;81491;-68